sensor_id;sensor_type;location;lat;lon;timestamp;temperature;humidity
69436;SHT31;56625;54.322;18.582;2023-03-22T00:02:16;7.71;76.00
69436;SHT31;56625;54.322;18.582;2023-03-22T00:04:44;7.73;76.00
69436;SHT31;56625;54.322;18.582;2023-03-22T00:07:12;7.72;76.11
69436;SHT31;56625;54.322;18.582;2023-03-22T00:09:40;7.72;76.20
69436;SHT31;56625;54.322;18.582;2023-03-22T00:12:08;7.72;76.19
69436;SHT31;56625;54.322;18.582;2023-03-22T00:14:36;7.74;76.22
69436;SHT31;56625;54.322;18.582;2023-03-22T00:17:04;7.75;76.34
69436;SHT31;56625;54.322;18.582;2023-03-22T00:19:32;7.76;76.40
69436;SHT31;56625;54.322;18.582;2023-03-22T00:22:00;7.78;76.40
69436;SHT31;56625;54.322;18.582;2023-03-22T00:24:30;7.82;76.39
69436;SHT31;56625;54.322;18.582;2023-03-22T00:26:58;7.84;76.50
69436;SHT31;56625;54.322;18.582;2023-03-22T00:29:27;7.86;76.51
69436;SHT31;56625;54.322;18.582;2023-03-22T00:31:55;7.89;76.61
69436;SHT31;56625;54.322;18.582;2023-03-22T00:34:23;7.90;76.78
69436;SHT31;56625;54.322;18.582;2023-03-22T00:36:51;7.91;76.82
69436;SHT31;56625;54.322;18.582;2023-03-22T00:39:19;7.94;76.97
69436;SHT31;56625;54.322;18.582;2023-03-22T00:41:46;7.96;77.08
69436;SHT31;56625;54.322;18.582;2023-03-22T00:44:14;7.95;77.18
69436;SHT31;56625;54.322;18.582;2023-03-22T00:46:42;7.97;77.09
69436;SHT31;56625;54.322;18.582;2023-03-22T00:49:10;7.99;77.03
69436;SHT31;56625;54.322;18.582;2023-03-22T00:51:38;8.02;76.96
69436;SHT31;56625;54.322;18.582;2023-03-22T00:54:06;8.05;77.00
69436;SHT31;56625;54.322;18.582;2023-03-22T00:56:34;8.06;77.06
69436;SHT31;56625;54.322;18.582;2023-03-22T00:59:04;8.08;77.09
69436;SHT31;56625;54.322;18.582;2023-03-22T01:01:32;8.09;77.08
69436;SHT31;56625;54.322;18.582;2023-03-22T01:03:59;8.11;77.10
69436;SHT31;56625;54.322;18.582;2023-03-22T01:06:28;8.14;77.08
69436;SHT31;56625;54.322;18.582;2023-03-22T01:08:56;8.16;77.05
69436;SHT31;56625;54.322;18.582;2023-03-22T01:11:24;8.19;77.08
69436;SHT31;56625;54.322;18.582;2023-03-22T01:13:52;8.20;77.14
69436;SHT31;56625;54.322;18.582;2023-03-22T01:16:22;8.21;77.30
69436;SHT31;56625;54.322;18.582;2023-03-22T01:18:50;8.20;77.42
69436;SHT31;56625;54.322;18.582;2023-03-22T01:21:17;8.18;77.74
69436;SHT31;56625;54.322;18.582;2023-03-22T01:23:45;8.18;77.83
69436;SHT31;56625;54.322;18.582;2023-03-22T01:26:13;8.19;77.80
69436;SHT31;56625;54.322;18.582;2023-03-22T01:28:41;8.20;78.06
69436;SHT31;56625;54.322;18.582;2023-03-22T01:31:09;8.20;78.08
69436;SHT31;56625;54.322;18.582;2023-03-22T01:33:37;8.20;78.19
69436;SHT31;56625;54.322;18.582;2023-03-22T01:36:05;8.22;78.32
69436;SHT31;56625;54.322;18.582;2023-03-22T01:38:34;8.22;78.43
69436;SHT31;56625;54.322;18.582;2023-03-22T01:41:02;8.23;78.52
69436;SHT31;56625;54.322;18.582;2023-03-22T01:43:30;8.24;78.68
69436;SHT31;56625;54.322;18.582;2023-03-22T01:45:57;8.25;78.77
69436;SHT31;56625;54.322;18.582;2023-03-22T01:48:32;8.27;78.80
69436;SHT31;56625;54.322;18.582;2023-03-22T01:51:09;8.27;78.87
69436;SHT31;56625;54.322;18.582;2023-03-22T01:53:47;8.28;78.88
69436;SHT31;56625;54.322;18.582;2023-03-22T01:56:20;8.30;78.80
69436;SHT31;56625;54.322;18.582;2023-03-22T01:58:53;8.31;78.83
69436;SHT31;56625;54.322;18.582;2023-03-22T02:01:22;8.32;78.76
69436;SHT31;56625;54.322;18.582;2023-03-22T02:03:54;8.34;78.74
69436;SHT31;56625;54.322;18.582;2023-03-22T02:06:29;8.36;78.75
69436;SHT31;56625;54.322;18.582;2023-03-22T02:08:58;8.36;78.90
69436;SHT31;56625;54.322;18.582;2023-03-22T02:11:28;8.37;78.80
69436;SHT31;56625;54.322;18.582;2023-03-22T02:14:22;8.41;78.70
69436;SHT31;56625;54.322;18.582;2023-03-22T02:26:03;8.47;78.67
69436;SHT31;56625;54.322;18.582;2023-03-22T02:31:57;8.52;78.63
69436;SHT31;56625;54.322;18.582;2023-03-22T02:47:35;8.56;78.79
69436;SHT31;56625;54.322;18.582;2023-03-22T02:50:21;8.57;79.01
69436;SHT31;56625;54.322;18.582;2023-03-22T02:53:06;8.58;79.07
69436;SHT31;56625;54.322;18.582;2023-03-22T02:58:41;8.65;79.17
69436;SHT31;56625;54.322;18.582;2023-03-22T03:01:16;8.68;79.18
69436;SHT31;56625;54.322;18.582;2023-03-22T03:03:55;8.72;79.24
69436;SHT31;56625;54.322;18.582;2023-03-22T03:06:30;8.76;79.22
69436;SHT31;56625;54.322;18.582;2023-03-22T03:09:06;8.81;79.22
69436;SHT31;56625;54.322;18.582;2023-03-22T03:11:35;8.84;79.23
69436;SHT31;56625;54.322;18.582;2023-03-22T03:14:03;8.86;79.14
69436;SHT31;56625;54.322;18.582;2023-03-22T03:16:31;8.89;79.17
69436;SHT31;56625;54.322;18.582;2023-03-22T03:19:12;8.89;79.26
69436;SHT31;56625;54.322;18.582;2023-03-22T03:22:00;8.90;79.33
69436;SHT31;56625;54.322;18.582;2023-03-22T03:25:08;8.93;79.43
69436;SHT31;56625;54.322;18.582;2023-03-22T03:31:07;8.93;79.64
69436;SHT31;56625;54.322;18.582;2023-03-22T03:33:58;8.95;79.73
69436;SHT31;56625;54.322;18.582;2023-03-22T03:36:31;8.94;79.93
69436;SHT31;56625;54.322;18.582;2023-03-22T03:39:04;8.95;79.94
69436;SHT31;56625;54.322;18.582;2023-03-22T03:41:38;8.94;80.24
69436;SHT31;56625;54.322;18.582;2023-03-22T03:44:10;8.92;80.48
69436;SHT31;56625;54.322;18.582;2023-03-22T03:46:40;8.91;80.69
69436;SHT31;56625;54.322;18.582;2023-03-22T03:49:08;8.88;81.04
69436;SHT31;56625;54.322;18.582;2023-03-22T03:51:50;8.85;81.44
69436;SHT31;56625;54.322;18.582;2023-03-22T03:54:21;8.82;81.63
69436;SHT31;56625;54.322;18.582;2023-03-22T03:56:49;8.80;81.73
69436;SHT31;56625;54.322;18.582;2023-03-22T03:59:18;8.78;82.07
69436;SHT31;56625;54.322;18.582;2023-03-22T04:01:47;8.74;82.26
69436;SHT31;56625;54.322;18.582;2023-03-22T04:04:22;8.71;82.70
69436;SHT31;56625;54.322;18.582;2023-03-22T04:06:54;8.67;82.77
69436;SHT31;56625;54.322;18.582;2023-03-22T04:09:26;8.64;82.98
69436;SHT31;56625;54.322;18.582;2023-03-22T04:11:58;8.61;83.24
69436;SHT31;56625;54.322;18.582;2023-03-22T04:14:27;8.57;83.53
69436;SHT31;56625;54.322;18.582;2023-03-22T04:16:55;8.54;83.77
69436;SHT31;56625;54.322;18.582;2023-03-22T04:19:23;8.50;83.89
69436;SHT31;56625;54.322;18.582;2023-03-22T04:21:51;8.47;84.11
69436;SHT31;56625;54.322;18.582;2023-03-22T04:24:20;8.43;84.39
69436;SHT31;56625;54.322;18.582;2023-03-22T04:26:48;8.39;84.77
69436;SHT31;56625;54.322;18.582;2023-03-22T04:29:17;8.35;85.04
69436;SHT31;56625;54.322;18.582;2023-03-22T04:31:45;8.33;85.39
69436;SHT31;56625;54.322;18.582;2023-03-22T04:34:13;8.28;85.87
69436;SHT31;56625;54.322;18.582;2023-03-22T04:36:41;8.26;86.17
69436;SHT31;56625;54.322;18.582;2023-03-22T04:39:11;8.24;86.22
69436;SHT31;56625;54.322;18.582;2023-03-22T04:41:39;8.22;86.54
69436;SHT31;56625;54.322;18.582;2023-03-22T04:44:07;8.20;86.65
69436;SHT31;56625;54.322;18.582;2023-03-22T04:46:35;8.22;86.38
69436;SHT31;56625;54.322;18.582;2023-03-22T04:49:04;8.22;86.28
69436;SHT31;56625;54.322;18.582;2023-03-22T04:51:32;8.23;86.52
69436;SHT31;56625;54.322;18.582;2023-03-22T04:54:00;8.22;86.68
69436;SHT31;56625;54.322;18.582;2023-03-22T04:56:28;8.22;86.75
69436;SHT31;56625;54.322;18.582;2023-03-22T04:58:56;8.22;86.68
69436;SHT31;56625;54.322;18.582;2023-03-22T05:01:24;8.23;86.64
69436;SHT31;56625;54.322;18.582;2023-03-22T05:03:52;8.24;86.69
69436;SHT31;56625;54.322;18.582;2023-03-22T05:06:20;8.23;86.83
69436;SHT31;56625;54.322;18.582;2023-03-22T05:08:48;8.25;86.78
69436;SHT31;56625;54.322;18.582;2023-03-22T05:11:16;8.28;86.76
69436;SHT31;56625;54.322;18.582;2023-03-22T05:13:46;8.29;86.73
69436;SHT31;56625;54.322;18.582;2023-03-22T05:16:14;8.29;87.06
69436;SHT31;56625;54.322;18.582;2023-03-22T05:18:42;8.27;87.29
69436;SHT31;56625;54.322;18.582;2023-03-22T05:21:12;8.26;87.30
69436;SHT31;56625;54.322;18.582;2023-03-22T05:23:44;8.28;87.20
69436;SHT31;56625;54.322;18.582;2023-03-22T05:26:13;8.31;87.18
69436;SHT31;56625;54.322;18.582;2023-03-22T05:28:42;8.30;87.30
69436;SHT31;56625;54.322;18.582;2023-03-22T05:31:10;8.30;87.22
69436;SHT31;56625;54.322;18.582;2023-03-22T05:33:42;8.28;87.37
69436;SHT31;56625;54.322;18.582;2023-03-22T05:36:13;8.26;87.44
69436;SHT31;56625;54.322;18.582;2023-03-22T05:38:41;8.26;87.55
69436;SHT31;56625;54.322;18.582;2023-03-22T05:41:11;8.25;87.66
69436;SHT31;56625;54.322;18.582;2023-03-22T05:43:41;8.24;87.78
69436;SHT31;56625;54.322;18.582;2023-03-22T05:46:10;8.24;87.71
69436;SHT31;56625;54.322;18.582;2023-03-22T05:48:39;8.24;87.92
69436;SHT31;56625;54.322;18.582;2023-03-22T05:51:08;8.24;87.94
69436;SHT31;56625;54.322;18.582;2023-03-22T05:53:44;8.26;88.10
69436;SHT31;56625;54.322;18.582;2023-03-22T05:56:14;8.28;88.18
69436;SHT31;56625;54.322;18.582;2023-03-22T05:58:42;8.28;88.34
69436;SHT31;56625;54.322;18.582;2023-03-22T06:01:11;8.30;88.38
69436;SHT31;56625;54.322;18.582;2023-03-22T06:03:42;8.31;88.36
69436;SHT31;56625;54.322;18.582;2023-03-22T06:06:10;8.34;88.34
69436;SHT31;56625;54.322;18.582;2023-03-22T06:08:39;8.38;88.24
69436;SHT31;56625;54.322;18.582;2023-03-22T06:11:07;8.41;88.15
69436;SHT31;56625;54.322;18.582;2023-03-22T06:13:35;8.43;88.20
69436;SHT31;56625;54.322;18.582;2023-03-22T06:16:04;8.45;88.12
69436;SHT31;56625;54.322;18.582;2023-03-22T06:18:33;8.47;88.08
69436;SHT31;56625;54.322;18.582;2023-03-22T06:21:01;8.49;88.12
69436;SHT31;56625;54.322;18.582;2023-03-22T06:23:29;8.51;88.05
69436;SHT31;56625;54.322;18.582;2023-03-22T06:25:57;8.55;87.98
69436;SHT31;56625;54.322;18.582;2023-03-22T06:28:25;8.59;88.16
69436;SHT31;56625;54.322;18.582;2023-03-22T06:30:56;8.63;88.17
69436;SHT31;56625;54.322;18.582;2023-03-22T06:33:24;8.67;88.16
69436;SHT31;56625;54.322;18.582;2023-03-22T06:35:52;8.72;88.03
69436;SHT31;56625;54.322;18.582;2023-03-22T06:38:33;8.75;88.00
69436;SHT31;56625;54.322;18.582;2023-03-22T06:41:01;8.77;87.96
69436;SHT31;56625;54.322;18.582;2023-03-22T06:43:29;8.78;87.90
69436;SHT31;56625;54.322;18.582;2023-03-22T06:45:57;8.81;87.90
69436;SHT31;56625;54.322;18.582;2023-03-22T06:48:25;8.82;87.90
69436;SHT31;56625;54.322;18.582;2023-03-22T06:50:53;8.83;87.87
69436;SHT31;56625;54.322;18.582;2023-03-22T06:53:21;8.85;87.80
69436;SHT31;56625;54.322;18.582;2023-03-22T06:55:49;8.88;87.74
69436;SHT31;56625;54.322;18.582;2023-03-22T06:58:21;8.98;87.69
69436;SHT31;56625;54.322;18.582;2023-03-22T07:00:49;9.09;87.47
69436;SHT31;56625;54.322;18.582;2023-03-22T07:03:17;9.15;87.19
69436;SHT31;56625;54.322;18.582;2023-03-22T07:05:45;9.17;87.05
69436;SHT31;56625;54.322;18.582;2023-03-22T07:08:13;9.19;86.94
69436;SHT31;56625;54.322;18.582;2023-03-22T07:10:41;9.22;86.80
69436;SHT31;56625;54.322;18.582;2023-03-22T07:13:10;9.27;86.70
69436;SHT31;56625;54.322;18.582;2023-03-22T07:15:40;9.34;86.55
69436;SHT31;56625;54.322;18.582;2023-03-22T07:18:08;9.39;86.40
69436;SHT31;56625;54.322;18.582;2023-03-22T07:20:35;9.42;86.14
69436;SHT31;56625;54.322;18.582;2023-03-22T07:23:08;9.48;86.02
69436;SHT31;56625;54.322;18.582;2023-03-22T07:25:37;9.62;85.90
69436;SHT31;56625;54.322;18.582;2023-03-22T07:28:05;9.81;85.32
69436;SHT31;56625;54.322;18.582;2023-03-22T07:30:33;10.00;84.83
69436;SHT31;56625;54.322;18.582;2023-03-22T07:33:05;10.11;84.46
69436;SHT31;56625;54.322;18.582;2023-03-22T07:35:36;10.15;83.96
69436;SHT31;56625;54.322;18.582;2023-03-22T07:38:05;10.24;83.99
69436;SHT31;56625;54.322;18.582;2023-03-22T07:40:33;10.32;83.37
69436;SHT31;56625;54.322;18.582;2023-03-22T07:43:01;10.41;83.14
69436;SHT31;56625;54.322;18.582;2023-03-22T07:45:29;10.47;82.72
69436;SHT31;56625;54.322;18.582;2023-03-22T07:47:57;10.52;82.35
69436;SHT31;56625;54.322;18.582;2023-03-22T07:50:26;10.60;82.17
69436;SHT31;56625;54.322;18.582;2023-03-22T07:52:54;10.69;81.78
69436;SHT31;56625;54.322;18.582;2023-03-22T07:55:22;10.73;81.43
69436;SHT31;56625;54.322;18.582;2023-03-22T07:57:49;10.72;80.59
69436;SHT31;56625;54.322;18.582;2023-03-22T08:00:17;10.69;80.68
69436;SHT31;56625;54.322;18.582;2023-03-22T08:02:46;10.67;80.98
69436;SHT31;56625;54.322;18.582;2023-03-22T08:05:14;10.80;80.73
69436;SHT31;56625;54.322;18.582;2023-03-22T08:07:42;10.88;80.64
69436;SHT31;56625;54.322;18.582;2023-03-22T08:10:10;10.97;80.00
69436;SHT31;56625;54.322;18.582;2023-03-22T08:12:38;10.98;79.37
69436;SHT31;56625;54.322;18.582;2023-03-22T08:15:07;10.98;79.67
69436;SHT31;56625;54.322;18.582;2023-03-22T08:17:36;11.05;79.36
69436;SHT31;56625;54.322;18.582;2023-03-22T08:20:04;11.11;79.36
69436;SHT31;56625;54.322;18.582;2023-03-22T08:22:35;11.16;79.25
69436;SHT31;56625;54.322;18.582;2023-03-22T08:25:03;11.18;78.54
69436;SHT31;56625;54.322;18.582;2023-03-22T08:27:32;11.22;78.84
69436;SHT31;56625;54.322;18.582;2023-03-22T08:30:00;11.31;78.79
69436;SHT31;56625;54.322;18.582;2023-03-22T08:32:29;11.41;78.76
69436;SHT31;56625;54.322;18.582;2023-03-22T08:34:56;11.50;78.25
69436;SHT31;56625;54.322;18.582;2023-03-22T08:37:24;11.55;77.83
69436;SHT31;56625;54.322;18.582;2023-03-22T08:39:52;11.58;77.57
69436;SHT31;56625;54.322;18.582;2023-03-22T08:42:20;11.64;77.31
69436;SHT31;56625;54.322;18.582;2023-03-22T08:44:48;11.70;77.10
69436;SHT31;56625;54.322;18.582;2023-03-22T08:47:18;11.74;76.94
69436;SHT31;56625;54.322;18.582;2023-03-22T08:49:46;11.74;76.70
69436;SHT31;56625;54.322;18.582;2023-03-22T08:52:14;11.84;77.12
69436;SHT31;56625;54.322;18.582;2023-03-22T08:54:42;11.91;76.64
69436;SHT31;56625;54.322;18.582;2023-03-22T08:57:10;12.05;76.49
69436;SHT31;56625;54.322;18.582;2023-03-22T08:59:38;12.05;75.61
69436;SHT31;56625;54.322;18.582;2023-03-22T09:02:07;11.97;75.79
69436;SHT31;56625;54.322;18.582;2023-03-22T09:04:36;11.98;75.91
69436;SHT31;56625;54.322;18.582;2023-03-22T09:07:04;11.94;75.84
69436;SHT31;56625;54.322;18.582;2023-03-22T09:09:32;11.88;75.76
69436;SHT31;56625;54.322;18.582;2023-03-22T09:12:00;11.79;76.08
69436;SHT31;56625;54.322;18.582;2023-03-22T09:14:28;11.74;75.76
69436;SHT31;56625;54.322;18.582;2023-03-22T09:16:56;11.76;75.78
69436;SHT31;56625;54.322;18.582;2023-03-22T09:19:24;11.75;75.63
69436;SHT31;56625;54.322;18.582;2023-03-22T09:21:52;11.80;75.65
69436;SHT31;56625;54.322;18.582;2023-03-22T09:24:21;11.81;75.62
69436;SHT31;56625;54.322;18.582;2023-03-22T09:26:49;11.88;75.36
69436;SHT31;56625;54.322;18.582;2023-03-22T09:29:18;11.93;75.18
69436;SHT31;56625;54.322;18.582;2023-03-22T09:31:46;12.06;75.00
69436;SHT31;56625;54.322;18.582;2023-03-22T09:34:15;12.18;74.62
69436;SHT31;56625;54.322;18.582;2023-03-22T09:36:44;12.27;74.30
69436;SHT31;56625;54.322;18.582;2023-03-22T09:39:13;12.30;74.04
69436;SHT31;56625;54.322;18.582;2023-03-22T09:41:47;12.28;73.97
69436;SHT31;56625;54.322;18.582;2023-03-22T09:47:06;12.18;74.64
69436;SHT31;56625;54.322;18.582;2023-03-22T09:49:42;12.21;74.27
69436;SHT31;56625;54.322;18.582;2023-03-22T09:52:20;12.16;74.06
69436;SHT31;56625;54.322;18.582;2023-03-22T09:54:48;12.16;74.03
69436;SHT31;56625;54.322;18.582;2023-03-22T09:57:32;12.23;73.24
69436;SHT31;56625;54.322;18.582;2023-03-22T10:02:46;12.40;72.84
69436;SHT31;56625;54.322;18.582;2023-03-22T10:11:18;12.64;71.27
69436;SHT31;56625;54.322;18.582;2023-03-22T10:14:03;12.67;71.63
69436;SHT31;56625;54.322;18.582;2023-03-22T10:16:43;12.73;70.96
69436;SHT31;56625;54.322;18.582;2023-03-22T10:19:20;12.82;70.39
69436;SHT31;56625;54.322;18.582;2023-03-22T10:21:57;12.85;70.18
69436;SHT31;56625;54.322;18.582;2023-03-22T10:24:30;13.02;69.87
69436;SHT31;56625;54.322;18.582;2023-03-22T10:27:15;13.18;69.04
69436;SHT31;56625;54.322;18.582;2023-03-22T10:29:50;13.21;68.35
69436;SHT31;56625;54.322;18.582;2023-03-22T10:35:24;13.05;68.64
69436;SHT31;56625;54.322;18.582;2023-03-22T10:37:53;13.18;68.44
69436;SHT31;56625;54.322;18.582;2023-03-22T10:40:30;13.30;68.20
69436;SHT31;56625;54.322;18.582;2023-03-22T10:43:03;13.34;67.80
69436;SHT31;56625;54.322;18.582;2023-03-22T10:45:42;13.59;67.42
69436;SHT31;56625;54.322;18.582;2023-03-22T10:48:13;13.69;67.07
69436;SHT31;56625;54.322;18.582;2023-03-22T10:50:56;13.70;67.19
69436;SHT31;56625;54.322;18.582;2023-03-22T10:53:32;13.73;66.86
69436;SHT31;56625;54.322;18.582;2023-03-22T10:56:12;13.74;66.39
69436;SHT31;56625;54.322;18.582;2023-03-22T10:58:45;13.58;66.63
69436;SHT31;56625;54.322;18.582;2023-03-22T11:01:26;13.38;66.89
69436;SHT31;56625;54.322;18.582;2023-03-22T11:04:07;13.18;67.63
69436;SHT31;56625;54.322;18.582;2023-03-22T11:06:47;13.10;68.10
69436;SHT31;56625;54.322;18.582;2023-03-22T11:09:22;13.02;68.32
69436;SHT31;56625;54.322;18.582;2023-03-22T11:11:54;13.13;67.80
69436;SHT31;56625;54.322;18.582;2023-03-22T11:14:35;13.42;67.57
69436;SHT31;56625;54.322;18.582;2023-03-22T11:17:11;13.79;67.28
69436;SHT31;56625;54.322;18.582;2023-03-22T11:30:31;13.88;66.66
69436;SHT31;56625;54.322;18.582;2023-03-22T11:35:35;13.78;66.59
69436;SHT31;56625;54.322;18.582;2023-03-22T11:38:05;13.81;66.76
69436;SHT31;56625;54.322;18.582;2023-03-22T11:40:52;13.76;66.39
69436;SHT31;56625;54.322;18.582;2023-03-22T11:43:27;13.73;66.55
69436;SHT31;56625;54.322;18.582;2023-03-22T11:46:06;13.73;66.47
69436;SHT31;56625;54.322;18.582;2023-03-22T11:48:35;13.72;66.45
69436;SHT31;56625;54.322;18.582;2023-03-22T11:51:12;13.67;66.43
69436;SHT31;56625;54.322;18.582;2023-03-22T11:53:46;13.67;66.42
69436;SHT31;56625;54.322;18.582;2023-03-22T11:56:16;13.69;65.67
69436;SHT31;56625;54.322;18.582;2023-03-22T11:58:54;13.72;65.94
69436;SHT31;56625;54.322;18.582;2023-03-22T12:02:02;13.79;66.37
69436;SHT31;56625;54.322;18.582;2023-03-22T12:08:10;13.59;66.53
69436;SHT31;56625;54.322;18.582;2023-03-22T12:10:52;13.55;67.03
69436;SHT31;56625;54.322;18.582;2023-03-22T12:13:35;13.49;67.31
69436;SHT31;56625;54.322;18.582;2023-03-22T12:16:18;13.59;67.54
69436;SHT31;56625;54.322;18.582;2023-03-22T12:19:11;13.67;67.37
69436;SHT31;56625;54.322;18.582;2023-03-22T12:21:57;13.74;66.92
69436;SHT31;56625;54.322;18.582;2023-03-22T12:26:59;13.85;66.73
69436;SHT31;56625;54.322;18.582;2023-03-22T12:32:46;14.09;65.84
69436;SHT31;56625;54.322;18.582;2023-03-22T12:35:25;14.16;65.27
69436;SHT31;56625;54.322;18.582;2023-03-22T12:38:06;14.10;65.18
69436;SHT31;56625;54.322;18.582;2023-03-22T12:41:08;14.09;65.11
69436;SHT31;56625;54.322;18.582;2023-03-22T12:43:54;14.09;65.51
69436;SHT31;56625;54.322;18.582;2023-03-22T12:46:27;14.15;65.46
69436;SHT31;56625;54.322;18.582;2023-03-22T12:55:17;14.00;66.18
69436;SHT31;56625;54.322;18.582;2023-03-22T12:58:06;14.07;66.27
69436;SHT31;56625;54.322;18.582;2023-03-22T13:00:37;14.03;66.23
69436;SHT31;56625;54.322;18.582;2023-03-22T13:05:59;13.94;66.28
69436;SHT31;56625;54.322;18.582;2023-03-22T13:09:00;13.89;66.38
69436;SHT31;56625;54.322;18.582;2023-03-22T13:11:30;13.82;66.46
69436;SHT31;56625;54.322;18.582;2023-03-22T13:13:59;13.76;66.57
69436;SHT31;56625;54.322;18.582;2023-03-22T13:19:27;13.66;66.71
69436;SHT31;56625;54.322;18.582;2023-03-22T13:22:13;13.54;66.91
69436;SHT31;56625;54.322;18.582;2023-03-22T13:32:49;13.51;67.54
69436;SHT31;56625;54.322;18.582;2023-03-22T13:38:24;13.48;67.84
69436;SHT31;56625;54.322;18.582;2023-03-22T13:44:17;13.38;68.07
69436;SHT31;56625;54.322;18.582;2023-03-22T13:46:51;13.35;68.23
69436;SHT31;56625;54.322;18.582;2023-03-22T13:49:44;13.35;68.25
69436;SHT31;56625;54.322;18.582;2023-03-22T13:52:41;13.43;68.56
69436;SHT31;56625;54.322;18.582;2023-03-22T14:22:30;13.63;68.10
69436;SHT31;56625;54.322;18.582;2023-03-22T14:25:04;13.61;68.52
69436;SHT31;56625;54.322;18.582;2023-03-22T14:27:33;13.58;68.50
69436;SHT31;56625;54.322;18.582;2023-03-22T14:30:02;13.50;68.65
69436;SHT31;56625;54.322;18.582;2023-03-22T14:32:30;13.40;69.00
69436;SHT31;56625;54.322;18.582;2023-03-22T14:35:01;13.34;69.28
69436;SHT31;56625;54.322;18.582;2023-03-22T14:37:37;13.29;69.42
69436;SHT31;56625;54.322;18.582;2023-03-22T14:40:15;13.30;69.68
69436;SHT31;56625;54.322;18.582;2023-03-22T14:42:54;13.31;69.79
69436;SHT31;56625;54.322;18.582;2023-03-22T14:45:21;13.29;69.75
69436;SHT31;56625;54.322;18.582;2023-03-22T14:47:49;13.28;69.90
69436;SHT31;56625;54.322;18.582;2023-03-22T14:50:18;13.28;69.94
69436;SHT31;56625;54.322;18.582;2023-03-22T14:52:48;13.30;69.95
69436;SHT31;56625;54.322;18.582;2023-03-22T14:55:18;13.31;70.02
69436;SHT31;56625;54.322;18.582;2023-03-22T14:57:57;13.33;70.19
69436;SHT31;56625;54.322;18.582;2023-03-22T15:00:28;13.34;70.35
69436;SHT31;56625;54.322;18.582;2023-03-22T15:02:56;13.34;70.41
69436;SHT31;56625;54.322;18.582;2023-03-22T15:05:27;13.35;70.39
69436;SHT31;56625;54.322;18.582;2023-03-22T15:08:06;13.30;70.41
69436;SHT31;56625;54.322;18.582;2023-03-22T15:10:38;13.26;70.86
69436;SHT31;56625;54.322;18.582;2023-03-22T15:13:07;13.22;71.38
69436;SHT31;56625;54.322;18.582;2023-03-22T15:15:38;13.21;71.62
69436;SHT31;56625;54.322;18.582;2023-03-22T15:18:10;13.20;71.59
69436;SHT31;56625;54.322;18.582;2023-03-22T15:20:44;13.20;71.74
69436;SHT31;56625;54.322;18.582;2023-03-22T15:23:18;13.25;72.04
69436;SHT31;56625;54.322;18.582;2023-03-22T15:25:47;13.29;71.89
69436;SHT31;56625;54.322;18.582;2023-03-22T15:28:18;13.30;71.85
69436;SHT31;56625;54.322;18.582;2023-03-22T15:30:48;13.30;71.82
69436;SHT31;56625;54.322;18.582;2023-03-22T15:33:22;13.29;71.75
69436;SHT31;56625;54.322;18.582;2023-03-22T15:36:03;13.26;71.88
69436;SHT31;56625;54.322;18.582;2023-03-22T15:38:32;13.21;72.01
69436;SHT31;56625;54.322;18.582;2023-03-22T15:41:21;13.20;72.20
69436;SHT31;56625;54.322;18.582;2023-03-22T15:44:04;13.19;72.27
69436;SHT31;56625;54.322;18.582;2023-03-22T15:46:53;13.19;72.20
69436;SHT31;56625;54.322;18.582;2023-03-22T15:49:24;13.17;72.23
69436;SHT31;56625;54.322;18.582;2023-03-22T15:54:56;13.18;72.22
69436;SHT31;56625;54.322;18.582;2023-03-22T16:00:29;13.20;72.22
69436;SHT31;56625;54.322;18.582;2023-03-22T16:05:33;13.20;72.20
69436;SHT31;56625;54.322;18.582;2023-03-22T16:08:07;13.19;72.16
69436;SHT31;56625;54.322;18.582;2023-03-22T16:10:41;13.17;72.25
69436;SHT31;56625;54.322;18.582;2023-03-22T16:13:22;13.14;72.38
69436;SHT31;56625;54.322;18.582;2023-03-22T16:15:50;13.12;72.49
69436;SHT31;56625;54.322;18.582;2023-03-22T16:18:18;13.11;72.55
69436;SHT31;56625;54.322;18.582;2023-03-22T16:20:47;13.09;72.58
69436;SHT31;56625;54.322;18.582;2023-03-22T16:23:16;13.06;72.71
69436;SHT31;56625;54.322;18.582;2023-03-22T16:25:46;13.03;72.79
69436;SHT31;56625;54.322;18.582;2023-03-22T16:28:18;13.01;72.87
69436;SHT31;56625;54.322;18.582;2023-03-22T16:30:45;12.98;72.93
69436;SHT31;56625;54.322;18.582;2023-03-22T16:33:12;12.98;72.96
69436;SHT31;56625;54.322;18.582;2023-03-22T16:35:42;12.96;73.02
69436;SHT31;56625;54.322;18.582;2023-03-22T16:38:11;12.93;73.13
69436;SHT31;56625;54.322;18.582;2023-03-22T16:40:44;12.91;73.26
69436;SHT31;56625;54.322;18.582;2023-03-22T16:43:15;12.89;73.40
69436;SHT31;56625;54.322;18.582;2023-03-22T16:45:41;12.88;73.56
69436;SHT31;56625;54.322;18.582;2023-03-22T16:48:09;12.86;73.75
69436;SHT31;56625;54.322;18.582;2023-03-22T16:50:37;12.82;73.95
69436;SHT31;56625;54.322;18.582;2023-03-22T16:53:14;12.81;74.04
69436;SHT31;56625;54.322;18.582;2023-03-22T16:55:43;12.78;74.17
69436;SHT31;56625;54.322;18.582;2023-03-22T16:58:12;12.77;74.30
69436;SHT31;56625;54.322;18.582;2023-03-22T17:00:40;12.73;74.40
69436;SHT31;56625;54.322;18.582;2023-03-22T17:03:07;12.70;74.48
69436;SHT31;56625;54.322;18.582;2023-03-22T17:05:37;12.68;74.65
69436;SHT31;56625;54.322;18.582;2023-03-22T17:08:04;12.65;74.70
69436;SHT31;56625;54.322;18.582;2023-03-22T17:10:41;12.64;74.86
69436;SHT31;56625;54.322;18.582;2023-03-22T17:13:09;12.61;74.94
69436;SHT31;56625;54.322;18.582;2023-03-22T17:15:45;12.60;75.11
69436;SHT31;56625;54.322;18.582;2023-03-22T17:18:15;12.58;75.17
69436;SHT31;56625;54.322;18.582;2023-03-22T17:20:43;12.57;75.21
69436;SHT31;56625;54.322;18.582;2023-03-22T17:23:12;12.57;75.36
69436;SHT31;56625;54.322;18.582;2023-03-22T17:25:41;12.57;75.57
69436;SHT31;56625;54.322;18.582;2023-03-22T17:28:13;12.54;75.83
69436;SHT31;56625;54.322;18.582;2023-03-22T17:30:40;12.53;75.84
69436;SHT31;56625;54.322;18.582;2023-03-22T17:33:07;12.51;75.91
69436;SHT31;56625;54.322;18.582;2023-03-22T17:35:34;12.46;76.26
69436;SHT31;56625;54.322;18.582;2023-03-22T17:38:01;12.42;76.39
69436;SHT31;56625;54.322;18.582;2023-03-22T17:40:29;12.40;76.43
69436;SHT31;56625;54.322;18.582;2023-03-22T17:43:00;12.38;76.48
69436;SHT31;56625;54.322;18.582;2023-03-22T17:45:30;12.34;76.69
69436;SHT31;56625;54.322;18.582;2023-03-22T17:48:01;12.33;76.81
69436;SHT31;56625;54.322;18.582;2023-03-22T17:50:30;12.29;76.92
69436;SHT31;56625;54.322;18.582;2023-03-22T17:52:59;12.26;77.02
69436;SHT31;56625;54.322;18.582;2023-03-22T17:55:29;12.24;77.11
69436;SHT31;56625;54.322;18.582;2023-03-22T17:57:58;12.21;77.24
69436;SHT31;56625;54.322;18.582;2023-03-22T18:00:26;12.20;77.20
69436;SHT31;56625;54.322;18.582;2023-03-22T18:02:53;12.19;77.34